sim
Sign-in with your pilot id or email,
or register
Callsign
Passwort

Schedule Details

Flight Number: OEO7020
Departure: Frankfurt Airport (EDDF) at 11:20
Arrival: Mumbai Chhatrapati Shivaji International Airport (VABB) at 19:20

Weather Information
Getting current METAR information for EDDF 152220Z 18007KT 9999 FEW026 08/05 Q1010 NOSIG
Getting current METAR information for VABB 152230Z 36004KT 2100 HZ NSC 24/20 Q1011 NOSIG

Schedule Frequency

Route Map